»·PEaware :: N1947L KEDU-KMCC

N1947L :: KEDU-KMCC

FLIGHT INFORMATION

Flight Status: Arrived
Operator: Privately registered:
United States
More flights under this callsign
Pilot: Mark S. (16827)
Aircraft: CESSNA 172 SKYHAWK
(C172)
More flights by this aircraft type
Origin: KEDU
Destination: KMCC McClellan
United States
More flights between these airports :: More routes between these airports
Route: SAC
File this flight plan on PilotEdge
Remarks:
Altitude:
(Current/Filed)
5,000ft
Speed:
(Current/Filed)
110kts
Departed: 06-Apr-19 11:07 AM
Arrived: 06-Apr-19 11:39 AM
Distance/Time
Traveled:
Not Available
Distance/Time
To Go:
Arrived

Flight Plot

Page will automatically refresh every two minutes.

Flight plan parsing failed; only flown route is shown


Map Options




Map Legend


Flown Route
Filed Route
Departure Airport
Arrival Airport
Navaid (VOR, NDB)
Fix

Horizontal Profiles

Position Reports

Time Latitude Longitude Heading Altitude Ground
Speed
06-Apr-19 10:59 38.535867 -121.786965 107 71ft 0kts
06-Apr-19 11:00 38.535867 -121.786965 107 71ft 0kts
06-Apr-19 11:01 38.535867 -121.786965 107 71ft 0kts
06-Apr-19 11:02 38.535867 -121.786965 107 71ft 0kts
06-Apr-19 11:03 38.535867 -121.786965 107 71ft 0kts
06-Apr-19 11:04 38.535867 -121.786965 107 71ft 0kts
06-Apr-19 11:05 38.535865 -121.786956 110 71ft 0kts
06-Apr-19 11:06 38.527234 -121.786366 177 216ft 79kts
06-Apr-19 11:07 38.511674 -121.772925 111 1121ft 78kts
06-Apr-19 11:08 38.502622 -121.746958 119 1951ft 75kts
06-Apr-19 11:09 38.494742 -121.722460 117 2700ft 75kts
06-Apr-19 11:10 38.487307 -121.697515 118 3403ft 75kts
06-Apr-19 11:11 38.479769 -121.672273 119 4071ft 76kts
06-Apr-19 11:12 38.471053 -121.643602 117 4287ft 112kts
06-Apr-19 11:13 38.458804 -121.602358 115 3811ft 130kts
06-Apr-19 11:14 38.447736 -121.563004 95 3278ft 114kts
06-Apr-19 11:15 38.469239 -121.534951 31 2996ft 107kts
06-Apr-19 11:16 38.493203 -121.515886 32 2997ft 98kts
06-Apr-19 11:17 38.519239 -121.501063 24 3008ft 117kts
06-Apr-19 11:18 38.550595 -121.481324 27 2985ft 130kts
06-Apr-19 11:19 38.583117 -121.459920 28 2982ft 131kts
06-Apr-19 11:20 38.615583 -121.438480 28 2982ft 131kts
06-Apr-19 11:21 38.648088 -121.416992 28 2982ft 131kts
06-Apr-19 11:22 38.682635 -121.403774 2 2982ft 132kts
06-Apr-19 11:23 38.719345 -121.401979 1 2982ft 132kts
06-Apr-19 11:24 38.756271 -121.400928 356 2982ft 132kts
06-Apr-19 11:25 38.793088 -121.403760 355 2982ft 133kts
06-Apr-19 11:26 38.829502 -121.400986 28 2981ft 132kts
06-Apr-19 11:27 38.858543 -121.372618 40 2982ft 131kts
06-Apr-19 11:28 38.888735 -121.366781 290 2981ft 125kts
06-Apr-19 11:29 38.874034 -121.395260 193 2913ft 96kts
06-Apr-19 11:30 38.848632 -121.399335 182 2208ft 89kts
06-Apr-19 11:31 38.823848 -121.400150 180 1523ft 88kts
06-Apr-19 11:32 38.800651 -121.400272 180 1483ft 82kts
06-Apr-19 11:33 38.777570 -121.400337 179 1482ft 83kts
06-Apr-19 11:34 38.754263 -121.400391 179 1472ft 85kts
06-Apr-19 11:35 38.729412 -121.400481 179 1026ft 87kts
06-Apr-19 11:36 38.706141 -121.400508 179 596ft 78kts
06-Apr-19 11:37 38.686898 -121.400545 178 199ft 57kts
06-Apr-19 11:38 38.676343 -121.400591 180 68ft 17kts
06-Apr-19 11:40 38.673937 -121.398914 89 68ft 11kts
06-Apr-19 11:41 38.677871 -121.397838 0 68ft 29kts
06-Apr-19 11:42 38.682345 -121.398349 294 68ft 7kts
06-Apr-19 11:43 38.682361 -121.398488 263 68ft 5kts
06-Apr-19 11:44 38.682361 -121.398488 263 68ft 5kts
06-Apr-19 11:45 38.682361 -121.398488 263 68ft 5kts
06-Apr-19 11:46 38.682361 -121.398488 263 68ft 5kts
06-Apr-19 11:47 38.682361 -121.398488 263 68ft 5kts
06-Apr-19 11:48 38.682361 -121.398488 263 68ft 5kts
06-Apr-19 11:49 38.682361 -121.398488 263 68ft 5kts
06-Apr-19 11:50 38.682361 -121.398488 263 68ft 5kts
06-Apr-19 11:51 38.682361 -121.398488 263 68ft 5kts
06-Apr-19 11:52 38.682361 -121.398488 263 68ft 5kts
06-Apr-19 11:53 38.682361 -121.398488 263 68ft 5kts

Navigation Log

Ident Type
Flight plan parsing failed, navigation log unavailable